sensor_id;sensor_type;location;lat;lon;timestamp;P1;durP1;ratioP1;P2;durP2;ratioP2
64293;SDS011;50636;45.596;5.258;2023-02-03T00:00:35;22.17;;;9.32;;
64293;SDS011;50636;45.596;5.258;2023-02-03T00:03:01;21.42;;;8.13;;
64293;SDS011;50636;45.596;5.258;2023-02-03T00:05:26;21.95;;;10.07;;
64293;SDS011;50636;45.596;5.258;2023-02-03T00:07:53;20.10;;;8.10;;
64293;SDS011;50636;45.596;5.258;2023-02-03T00:10:19;21.15;;;7.75;;
64293;SDS011;50636;45.596;5.258;2023-02-03T00:12:48;24.98;;;9.07;;
64293;SDS011;50636;45.596;5.258;2023-02-03T00:15:17;22.50;;;7.72;;
64293;SDS011;50636;45.596;5.258;2023-02-03T00:17:43;19.48;;;8.60;;
64293;SDS011;50636;45.596;5.258;2023-02-03T00:20:09;14.90;;;7.75;;
64293;SDS011;50636;45.596;5.258;2023-02-03T00:22:35;15.73;;;7.22;;
64293;SDS011;50636;45.596;5.258;2023-02-03T00:25:01;17.67;;;7.63;;
64293;SDS011;50636;45.596;5.258;2023-02-03T00:27:27;16.75;;;7.53;;
64293;SDS011;50636;45.596;5.258;2023-02-03T00:29:52;24.85;;;8.50;;
64293;SDS011;50636;45.596;5.258;2023-02-03T00:32:18;16.50;;;8.70;;
64293;SDS011;50636;45.596;5.258;2023-02-03T00:34:43;20.17;;;7.55;;
64293;SDS011;50636;45.596;5.258;2023-02-03T00:37:11;17.23;;;7.10;;
64293;SDS011;50636;45.596;5.258;2023-02-03T00:39:37;14.30;;;7.60;;
64293;SDS011;50636;45.596;5.258;2023-02-03T00:42:03;15.82;;;7.55;;
64293;SDS011;50636;45.596;5.258;2023-02-03T00:44:30;20.02;;;8.07;;
64293;SDS011;50636;45.596;5.258;2023-02-03T00:46:55;19.25;;;7.82;;
64293;SDS011;50636;45.596;5.258;2023-02-03T00:49:21;70.75;;;44.22;;
64293;SDS011;50636;45.596;5.258;2023-02-03T00:51:47;26.92;;;16.45;;
64293;SDS011;50636;45.596;5.258;2023-02-03T00:54:13;32.17;;;17.33;;
64293;SDS011;50636;45.596;5.258;2023-02-03T00:56:38;21.35;;;10.73;;
64293;SDS011;50636;45.596;5.258;2023-02-03T00:59:04;14.73;;;7.25;;
64293;SDS011;50636;45.596;5.258;2023-02-03T01:01:31;23.33;;;12.07;;
64293;SDS011;50636;45.596;5.258;2023-02-03T01:03:57;27.00;;;8.57;;
64293;SDS011;50636;45.596;5.258;2023-02-03T01:06:24;24.42;;;9.85;;
64293;SDS011;50636;45.596;5.258;2023-02-03T01:08:50;21.83;;;8.52;;
64293;SDS011;50636;45.596;5.258;2023-02-03T01:11:17;18.20;;;8.40;;
64293;SDS011;50636;45.596;5.258;2023-02-03T01:13:44;15.43;;;7.82;;
64293;SDS011;50636;45.596;5.258;2023-02-03T01:16:10;13.55;;;7.32;;
64293;SDS011;50636;45.596;5.258;2023-02-03T01:18:38;21.15;;;7.30;;
64293;SDS011;50636;45.596;5.258;2023-02-03T01:21:05;15.48;;;6.45;;
64293;SDS011;50636;45.596;5.258;2023-02-03T01:23:36;22.27;;;8.52;;
64293;SDS011;50636;45.596;5.258;2023-02-03T01:26:02;18.70;;;6.18;;
64293;SDS011;50636;45.596;5.258;2023-02-03T01:28:36;16.23;;;6.95;;
64293;SDS011;50636;45.596;5.258;2023-02-03T01:31:08;19.65;;;6.28;;
64293;SDS011;50636;45.596;5.258;2023-02-03T01:33:39;20.17;;;7.53;;
64293;SDS011;50636;45.596;5.258;2023-02-03T01:36:08;18.42;;;7.22;;
64293;SDS011;50636;45.596;5.258;2023-02-03T01:38:35;12.95;;;7.68;;
64293;SDS011;50636;45.596;5.258;2023-02-03T01:41:01;19.38;;;6.82;;
64293;SDS011;50636;45.596;5.258;2023-02-03T01:43:29;16.83;;;6.15;;
64293;SDS011;50636;45.596;5.258;2023-02-03T01:46:01;13.95;;;7.05;;
64293;SDS011;50636;45.596;5.258;2023-02-03T01:48:30;14.25;;;6.25;;
64293;SDS011;50636;45.596;5.258;2023-02-03T01:50:57;11.43;;;6.85;;
64293;SDS011;50636;45.596;5.258;2023-02-03T01:53:26;20.27;;;11.05;;
64293;SDS011;50636;45.596;5.258;2023-02-03T01:55:52;13.95;;;6.97;;
64293;SDS011;50636;45.596;5.258;2023-02-03T01:58:25;19.30;;;6.95;;
64293;SDS011;50636;45.596;5.258;2023-02-03T02:00:56;21.58;;;6.20;;
64293;SDS011;50636;45.596;5.258;2023-02-03T02:03:26;16.30;;;6.30;;
64293;SDS011;50636;45.596;5.258;2023-02-03T02:06:03;16.60;;;6.20;;
64293;SDS011;50636;45.596;5.258;2023-02-03T02:13:25;15.93;;;6.80;;
64293;SDS011;50636;45.596;5.258;2023-02-03T02:26:49;15.10;;;6.25;;
64293;SDS011;50636;45.596;5.258;2023-02-03T02:32:05;12.73;;;6.20;;
64293;SDS011;50636;45.596;5.258;2023-02-03T02:43:41;17.38;;;6.45;;
64293;SDS011;50636;45.596;5.258;2023-02-03T02:46:14;12.88;;;6.85;;
64293;SDS011;50636;45.596;5.258;2023-02-03T02:48:50;14.68;;;6.22;;
64293;SDS011;50636;45.596;5.258;2023-02-03T02:51:21;15.93;;;6.22;;
64293;SDS011;50636;45.596;5.258;2023-02-03T02:53:50;13.48;;;6.28;;
64293;SDS011;50636;45.596;5.258;2023-02-03T02:56:20;17.10;;;6.55;;
64293;SDS011;50636;45.596;5.258;2023-02-03T02:58:48;12.75;;;6.72;;
64293;SDS011;50636;45.596;5.258;2023-02-03T03:01:16;21.48;;;6.50;;
64293;SDS011;50636;45.596;5.258;2023-02-03T03:03:43;15.63;;;6.72;;
64293;SDS011;50636;45.596;5.258;2023-02-03T03:06:14;16.77;;;6.68;;
64293;SDS011;50636;45.596;5.258;2023-02-03T03:11:36;14.57;;;6.93;;
64293;SDS011;50636;45.596;5.258;2023-02-03T03:14:07;15.95;;;6.07;;
64293;SDS011;50636;45.596;5.258;2023-02-03T03:16:37;34.58;;;6.70;;
64293;SDS011;50636;45.596;5.258;2023-02-03T03:19:06;30.10;;;6.55;;
64293;SDS011;50636;45.596;5.258;2023-02-03T03:21:37;40.22;;;7.72;;
64293;SDS011;50636;45.596;5.258;2023-02-03T03:29:32;45.15;;;7.47;;
64293;SDS011;50636;45.596;5.258;2023-02-03T03:32:05;21.40;;;7.05;;
64293;SDS011;50636;45.596;5.258;2023-02-03T03:34:31;26.63;;;6.93;;
64293;SDS011;50636;45.596;5.258;2023-02-03T03:39:43;18.40;;;5.47;;
64293;SDS011;50636;45.596;5.258;2023-02-03T03:44:51;20.85;;;6.78;;
64293;SDS011;50636;45.596;5.258;2023-02-03T03:47:33;20.17;;;5.80;;
64293;SDS011;50636;45.596;5.258;2023-02-03T03:50:05;25.95;;;6.80;;
64293;SDS011;50636;45.596;5.258;2023-02-03T03:52:34;16.00;;;6.13;;
64293;SDS011;50636;45.596;5.258;2023-02-03T03:55:05;15.95;;;5.10;;
64293;SDS011;50636;45.596;5.258;2023-02-03T03:57:36;17.05;;;7.45;;
64293;SDS011;50636;45.596;5.258;2023-02-03T04:00:07;18.73;;;7.45;;
64293;SDS011;50636;45.596;5.258;2023-02-03T04:02:38;21.52;;;7.18;;
64293;SDS011;50636;45.596;5.258;2023-02-03T04:05:05;15.77;;;6.72;;
64293;SDS011;50636;45.596;5.258;2023-02-03T04:07:42;17.73;;;7.30;;
64293;SDS011;50636;45.596;5.258;2023-02-03T04:10:32;20.98;;;8.25;;
64293;SDS011;50636;45.596;5.258;2023-02-03T04:13:00;20.23;;;6.32;;
64293;SDS011;50636;45.596;5.258;2023-02-03T04:15:27;16.33;;;7.20;;
64293;SDS011;50636;45.596;5.258;2023-02-03T04:17:53;24.75;;;5.38;;
64293;SDS011;50636;45.596;5.258;2023-02-03T04:20:21;15.35;;;5.35;;
64293;SDS011;50636;45.596;5.258;2023-02-03T04:22:47;19.38;;;7.32;;
64293;SDS011;50636;45.596;5.258;2023-02-03T04:25:12;20.40;;;6.43;;
64293;SDS011;50636;45.596;5.258;2023-02-03T04:27:38;15.13;;;5.88;;
64293;SDS011;50636;45.596;5.258;2023-02-03T04:30:04;18.25;;;5.97;;
64293;SDS011;50636;45.596;5.258;2023-02-03T04:32:30;20.95;;;5.80;;
64293;SDS011;50636;45.596;5.258;2023-02-03T04:34:56;23.50;;;5.68;;
64293;SDS011;50636;45.596;5.258;2023-02-03T04:37:23;23.77;;;6.75;;
64293;SDS011;50636;45.596;5.258;2023-02-03T04:39:51;14.80;;;6.18;;
64293;SDS011;50636;45.596;5.258;2023-02-03T04:42:22;16.42;;;7.10;;
64293;SDS011;50636;45.596;5.258;2023-02-03T04:44:48;14.73;;;6.13;;
64293;SDS011;50636;45.596;5.258;2023-02-03T04:47:14;17.67;;;7.47;;
64293;SDS011;50636;45.596;5.258;2023-02-03T04:49:41;17.58;;;6.72;;
64293;SDS011;50636;45.596;5.258;2023-02-03T04:52:06;14.75;;;7.00;;
64293;SDS011;50636;45.596;5.258;2023-02-03T04:54:32;16.45;;;5.88;;
64293;SDS011;50636;45.596;5.258;2023-02-03T04:56:58;19.10;;;6.25;;
64293;SDS011;50636;45.596;5.258;2023-02-03T04:59:24;13.90;;;6.10;;
64293;SDS011;50636;45.596;5.258;2023-02-03T05:01:49;16.48;;;5.80;;
64293;SDS011;50636;45.596;5.258;2023-02-03T05:04:15;17.60;;;8.10;;
64293;SDS011;50636;45.596;5.258;2023-02-03T05:06:41;14.43;;;7.43;;
64293;SDS011;50636;45.596;5.258;2023-02-03T05:09:06;21.10;;;8.23;;
64293;SDS011;50636;45.596;5.258;2023-02-03T05:11:32;17.83;;;6.68;;
64293;SDS011;50636;45.596;5.258;2023-02-03T05:13:57;12.35;;;7.80;;
64293;SDS011;50636;45.596;5.258;2023-02-03T05:16:23;21.92;;;7.28;;
64293;SDS011;50636;45.596;5.258;2023-02-03T05:18:49;16.02;;;7.18;;
64293;SDS011;50636;45.596;5.258;2023-02-03T05:21:15;18.80;;;8.38;;
64293;SDS011;50636;45.596;5.258;2023-02-03T05:23:40;18.08;;;7.80;;
64293;SDS011;50636;45.596;5.258;2023-02-03T05:26:06;21.73;;;8.20;;
64293;SDS011;50636;45.596;5.258;2023-02-03T05:28:32;17.77;;;7.80;;
64293;SDS011;50636;45.596;5.258;2023-02-03T05:30:58;20.00;;;7.65;;
64293;SDS011;50636;45.596;5.258;2023-02-03T05:33:24;17.27;;;7.63;;
64293;SDS011;50636;45.596;5.258;2023-02-03T05:35:50;13.07;;;6.40;;
64293;SDS011;50636;45.596;5.258;2023-02-03T05:38:16;25.38;;;7.85;;
64293;SDS011;50636;45.596;5.258;2023-02-03T05:40:41;24.63;;;9.38;;
64293;SDS011;50636;45.596;5.258;2023-02-03T05:43:27;27.40;;;10.30;;
64293;SDS011;50636;45.596;5.258;2023-02-03T05:45:53;26.27;;;9.50;;
64293;SDS011;50636;45.596;5.258;2023-02-03T05:48:18;26.27;;;9.10;;
64293;SDS011;50636;45.596;5.258;2023-02-03T05:50:44;23.08;;;9.88;;
64293;SDS011;50636;45.596;5.258;2023-02-03T05:53:10;18.73;;;8.00;;
64293;SDS011;50636;45.596;5.258;2023-02-03T05:55:36;14.80;;;7.55;;
64293;SDS011;50636;45.596;5.258;2023-02-03T05:58:02;22.15;;;9.00;;
64293;SDS011;50636;45.596;5.258;2023-02-03T06:00:29;21.27;;;8.55;;
64293;SDS011;50636;45.596;5.258;2023-02-03T06:02:56;22.30;;;9.02;;
64293;SDS011;50636;45.596;5.258;2023-02-03T06:05:23;25.50;;;11.38;;
64293;SDS011;50636;45.596;5.258;2023-02-03T06:07:49;29.05;;;9.73;;
64293;SDS011;50636;45.596;5.258;2023-02-03T06:10:16;17.35;;;8.88;;
64293;SDS011;50636;45.596;5.258;2023-02-03T06:12:42;22.73;;;9.70;;
64293;SDS011;50636;45.596;5.258;2023-02-03T06:15:08;38.88;;;9.98;;
64293;SDS011;50636;45.596;5.258;2023-02-03T06:17:34;23.27;;;8.73;;
64293;SDS011;50636;45.596;5.258;2023-02-03T06:20:01;18.58;;;8.68;;
64293;SDS011;50636;45.596;5.258;2023-02-03T06:22:30;17.25;;;7.72;;
64293;SDS011;50636;45.596;5.258;2023-02-03T06:24:56;17.10;;;8.32;;
64293;SDS011;50636;45.596;5.258;2023-02-03T06:27:21;20.52;;;8.50;;
64293;SDS011;50636;45.596;5.258;2023-02-03T06:29:47;22.67;;;7.55;;
64293;SDS011;50636;45.596;5.258;2023-02-03T06:32:13;23.20;;;8.45;;
64293;SDS011;50636;45.596;5.258;2023-02-03T06:34:38;19.83;;;7.05;;
64293;SDS011;50636;45.596;5.258;2023-02-03T06:37:04;34.28;;;14.10;;
64293;SDS011;50636;45.596;5.258;2023-02-03T06:39:29;24.73;;;9.35;;
64293;SDS011;50636;45.596;5.258;2023-02-03T06:41:55;23.08;;;9.70;;
64293;SDS011;50636;45.596;5.258;2023-02-03T06:44:21;17.98;;;9.00;;
64293;SDS011;50636;45.596;5.258;2023-02-03T06:46:47;23.40;;;9.95;;
64293;SDS011;50636;45.596;5.258;2023-02-03T06:49:14;28.55;;;9.70;;
64293;SDS011;50636;45.596;5.258;2023-02-03T06:51:41;16.17;;;8.20;;
64293;SDS011;50636;45.596;5.258;2023-02-03T06:54:07;18.60;;;10.45;;
64293;SDS011;50636;45.596;5.258;2023-02-03T06:56:34;30.25;;;13.85;;
64293;SDS011;50636;45.596;5.258;2023-02-03T06:59:00;21.45;;;9.57;;
64293;SDS011;50636;45.596;5.258;2023-02-03T07:01:26;19.95;;;10.15;;
64293;SDS011;50636;45.596;5.258;2023-02-03T07:03:51;20.70;;;9.02;;
64293;SDS011;50636;45.596;5.258;2023-02-03T07:06:17;21.83;;;9.35;;
64293;SDS011;50636;45.596;5.258;2023-02-03T07:08:43;20.70;;;9.65;;
64293;SDS011;50636;45.596;5.258;2023-02-03T07:11:08;23.20;;;8.77;;
64293;SDS011;50636;45.596;5.258;2023-02-03T07:13:34;21.23;;;8.85;;
64293;SDS011;50636;45.596;5.258;2023-02-03T07:16:00;23.52;;;8.90;;
64293;SDS011;50636;45.596;5.258;2023-02-03T07:18:25;22.27;;;8.05;;
64293;SDS011;50636;45.596;5.258;2023-02-03T07:20:51;16.95;;;7.35;;
64293;SDS011;50636;45.596;5.258;2023-02-03T07:23:17;21.45;;;9.73;;
64293;SDS011;50636;45.596;5.258;2023-02-03T07:25:43;18.17;;;8.25;;
64293;SDS011;50636;45.596;5.258;2023-02-03T07:28:09;21.77;;;8.52;;
64293;SDS011;50636;45.596;5.258;2023-02-03T07:30:35;28.55;;;8.45;;
64293;SDS011;50636;45.596;5.258;2023-02-03T07:33:01;25.85;;;8.80;;
64293;SDS011;50636;45.596;5.258;2023-02-03T07:35:27;40.10;;;10.20;;
64293;SDS011;50636;45.596;5.258;2023-02-03T07:37:52;15.50;;;8.40;;
64293;SDS011;50636;45.596;5.258;2023-02-03T07:40:18;27.40;;;8.88;;
64293;SDS011;50636;45.596;5.258;2023-02-03T07:42:45;45.85;;;10.88;;
64293;SDS011;50636;45.596;5.258;2023-02-03T07:45:13;24.58;;;8.75;;
64293;SDS011;50636;45.596;5.258;2023-02-03T07:47:40;25.92;;;9.10;;
64293;SDS011;50636;45.596;5.258;2023-02-03T07:50:07;20.38;;;9.00;;
64293;SDS011;50636;45.596;5.258;2023-02-03T07:52:34;16.10;;;9.38;;
64293;SDS011;50636;45.596;5.258;2023-02-03T07:55:00;21.27;;;12.00;;
64293;SDS011;50636;45.596;5.258;2023-02-03T07:57:25;21.77;;;9.88;;
64293;SDS011;50636;45.596;5.258;2023-02-03T07:59:51;31.65;;;9.30;;
64293;SDS011;50636;45.596;5.258;2023-02-03T08:02:17;20.50;;;9.15;;
64293;SDS011;50636;45.596;5.258;2023-02-03T08:04:42;22.92;;;9.43;;
64293;SDS011;50636;45.596;5.258;2023-02-03T08:07:08;23.17;;;10.05;;
64293;SDS011;50636;45.596;5.258;2023-02-03T08:09:33;21.13;;;10.20;;
64293;SDS011;50636;45.596;5.258;2023-02-03T08:11:59;26.27;;;11.38;;
64293;SDS011;50636;45.596;5.258;2023-02-03T08:14:24;29.63;;;10.80;;
64293;SDS011;50636;45.596;5.258;2023-02-03T08:16:50;21.48;;;9.27;;
64293;SDS011;50636;45.596;5.258;2023-02-03T08:19:16;20.02;;;9.25;;
64293;SDS011;50636;45.596;5.258;2023-02-03T08:21:41;16.17;;;8.55;;
64293;SDS011;50636;45.596;5.258;2023-02-03T08:24:07;23.42;;;9.40;;
64293;SDS011;50636;45.596;5.258;2023-02-03T08:26:34;22.58;;;9.60;;
64293;SDS011;50636;45.596;5.258;2023-02-03T08:29:00;19.15;;;8.77;;
64293;SDS011;50636;45.596;5.258;2023-02-03T08:31:27;22.50;;;9.02;;
64293;SDS011;50636;45.596;5.258;2023-02-03T08:33:53;20.58;;;9.27;;
64293;SDS011;50636;45.596;5.258;2023-02-03T08:36:19;21.73;;;9.40;;
64293;SDS011;50636;45.596;5.258;2023-02-03T08:38:44;19.98;;;8.82;;
64293;SDS011;50636;45.596;5.258;2023-02-03T08:41:11;30.15;;;10.02;;
64293;SDS011;50636;45.596;5.258;2023-02-03T08:43:38;26.17;;;10.38;;
64293;SDS011;50636;45.596;5.258;2023-02-03T08:46:05;26.27;;;9.35;;
64293;SDS011;50636;45.596;5.258;2023-02-03T08:48:32;21.75;;;10.10;;
64293;SDS011;50636;45.596;5.258;2023-02-03T08:50:58;24.10;;;9.57;;
64293;SDS011;50636;45.596;5.258;2023-02-03T08:53:24;24.67;;;10.10;;
64293;SDS011;50636;45.596;5.258;2023-02-03T08:55:50;28.20;;;10.13;;
64293;SDS011;50636;45.596;5.258;2023-02-03T08:58:16;21.95;;;9.93;;
64293;SDS011;50636;45.596;5.258;2023-02-03T09:00:42;29.85;;;11.07;;
64293;SDS011;50636;45.596;5.258;2023-02-03T09:03:08;25.67;;;11.15;;
64293;SDS011;50636;45.596;5.258;2023-02-03T09:05:34;25.25;;;9.70;;
64293;SDS011;50636;45.596;5.258;2023-02-03T09:07:59;23.67;;;9.63;;
64293;SDS011;50636;45.596;5.258;2023-02-03T09:10:25;20.55;;;9.73;;
64293;SDS011;50636;45.596;5.258;2023-02-03T09:12:51;24.63;;;9.32;;
64293;SDS011;50636;45.596;5.258;2023-02-03T09:15:16;20.67;;;8.32;;
64293;SDS011;50636;45.596;5.258;2023-02-03T09:17:42;24.02;;;9.40;;
64293;SDS011;50636;45.596;5.258;2023-02-03T09:20:08;21.25;;;8.63;;
64293;SDS011;50636;45.596;5.258;2023-02-03T09:22:34;22.10;;;10.07;;
64293;SDS011;50636;45.596;5.258;2023-02-03T09:25:00;27.10;;;9.23;;
64293;SDS011;50636;45.596;5.258;2023-02-03T09:27:25;22.35;;;9.35;;
64293;SDS011;50636;45.596;5.258;2023-02-03T09:29:51;24.25;;;9.73;;
64293;SDS011;50636;45.596;5.258;2023-02-03T09:32:16;33.53;;;9.73;;
64293;SDS011;50636;45.596;5.258;2023-02-03T09:34:42;29.42;;;9.68;;
64293;SDS011;50636;45.596;5.258;2023-02-03T09:37:07;28.63;;;8.77;;
64293;SDS011;50636;45.596;5.258;2023-02-03T09:39:33;36.35;;;9.45;;
64293;SDS011;50636;45.596;5.258;2023-02-03T09:44:57;26.98;;;8.65;;
64293;SDS011;50636;45.596;5.258;2023-02-03T09:47:26;28.85;;;12.68;;
64293;SDS011;50636;45.596;5.258;2023-02-03T09:49:57;157.00;;;140.68;;
64293;SDS011;50636;45.596;5.258;2023-02-03T09:52:30;198.65;;;177.15;;
64293;SDS011;50636;45.596;5.258;2023-02-03T09:57:30;1132.25;;;617.90;;
64293;SDS011;50636;45.596;5.258;2023-02-03T10:00:02;1478.47;;;688.83;;
64293;SDS011;50636;45.596;5.258;2023-02-03T10:13:55;264.52;;;97.82;;
64293;SDS011;50636;45.596;5.258;2023-02-03T10:19:46;125.95;;;42.13;;
64293;SDS011;50636;45.596;5.258;2023-02-03T10:22:19;91.97;;;34.78;;
64293;SDS011;50636;45.596;5.258;2023-02-03T10:24:51;84.65;;;31.67;;
64293;SDS011;50636;45.596;5.258;2023-02-03T10:27:30;97.25;;;31.10;;
64293;SDS011;50636;45.596;5.258;2023-02-03T10:30:22;60.53;;;17.27;;
64293;SDS011;50636;45.596;5.258;2023-02-03T10:32:50;33.63;;;11.18;;
64293;SDS011;50636;45.596;5.258;2023-02-03T10:35:20;24.00;;;9.65;;
64293;SDS011;50636;45.596;5.258;2023-02-03T10:38:05;21.08;;;7.28;;
64293;SDS011;50636;45.596;5.258;2023-02-03T10:40:39;25.48;;;8.48;;
64293;SDS011;50636;45.596;5.258;2023-02-03T10:43:05;23.38;;;7.28;;
64293;SDS011;50636;45.596;5.258;2023-02-03T10:45:51;33.38;;;7.45;;
64293;SDS011;50636;45.596;5.258;2023-02-03T10:48:17;11.98;;;4.85;;
64293;SDS011;50636;45.596;5.258;2023-02-03T10:50:45;14.77;;;4.72;;
64293;SDS011;50636;45.596;5.258;2023-02-03T10:55:42;11.20;;;4.22;;
64293;SDS011;50636;45.596;5.258;2023-02-03T10:58:13;12.55;;;4.95;;
64293;SDS011;50636;45.596;5.258;2023-02-03T11:00:49;12.68;;;4.18;;
64293;SDS011;50636;45.596;5.258;2023-02-03T11:03:28;14.38;;;3.70;;
64293;SDS011;50636;45.596;5.258;2023-02-03T11:06:05;16.60;;;4.43;;
64293;SDS011;50636;45.596;5.258;2023-02-03T11:08:34;15.63;;;3.67;;
64293;SDS011;50636;45.596;5.258;2023-02-03T11:11:01;12.68;;;4.18;;
64293;SDS011;50636;45.596;5.258;2023-02-03T11:13:29;16.95;;;3.85;;
64293;SDS011;50636;45.596;5.258;2023-02-03T11:18:32;17.15;;;4.13;;
64293;SDS011;50636;45.596;5.258;2023-02-03T11:21:32;17.33;;;3.50;;
64293;SDS011;50636;45.596;5.258;2023-02-03T11:26:59;16.35;;;2.78;;
64293;SDS011;50636;45.596;5.258;2023-02-03T11:29:31;9.60;;;2.58;;
64293;SDS011;50636;45.596;5.258;2023-02-03T11:32:00;9.95;;;2.28;;
64293;SDS011;50636;45.596;5.258;2023-02-03T11:37:25;9.93;;;2.85;;
64293;SDS011;50636;45.596;5.258;2023-02-03T11:42:32;10.82;;;2.30;;
64293;SDS011;50636;45.596;5.258;2023-02-03T11:47:49;7.00;;;1.90;;
64293;SDS011;50636;45.596;5.258;2023-02-03T12:01:26;8.25;;;2.40;;
64293;SDS011;50636;45.596;5.258;2023-02-03T12:07:27;4.60;;;1.70;;
64293;SDS011;50636;45.596;5.258;2023-02-03T12:13:04;7.40;;;1.63;;
64293;SDS011;50636;45.596;5.258;2023-02-03T12:18:23;6.03;;;1.55;;
64293;SDS011;50636;45.596;5.258;2023-02-03T12:27:13;8.20;;;2.08;;
64293;SDS011;50636;45.596;5.258;2023-02-03T12:29:54;5.28;;;1.80;;
64293;SDS011;50636;45.596;5.258;2023-02-03T12:32:26;5.53;;;1.23;;
64293;SDS011;50636;45.596;5.258;2023-02-03T12:35:02;5.45;;;1.65;;
64293;SDS011;50636;45.596;5.258;2023-02-03T12:40:36;5.32;;;1.60;;
64293;SDS011;50636;45.596;5.258;2023-02-03T12:45:36;7.18;;;1.83;;
64293;SDS011;50636;45.596;5.258;2023-02-03T12:48:05;12.43;;;2.00;;
64293;SDS011;50636;45.596;5.258;2023-02-03T12:50:41;5.80;;;1.63;;
64293;SDS011;50636;45.596;5.258;2023-02-03T12:55:52;8.40;;;1.40;;
64293;SDS011;50636;45.596;5.258;2023-02-03T12:58:34;7.00;;;1.50;;
64293;SDS011;50636;45.596;5.258;2023-02-03T13:04:07;15.23;;;2.47;;
64293;SDS011;50636;45.596;5.258;2023-02-03T13:09:44;7.63;;;1.80;;
64293;SDS011;50636;45.596;5.258;2023-02-03T13:12:31;6.00;;;1.40;;
64293;SDS011;50636;45.596;5.258;2023-02-03T13:18:22;7.15;;;2.20;;
64293;SDS011;50636;45.596;5.258;2023-02-03T13:20:53;5.35;;;1.23;;
64293;SDS011;50636;45.596;5.258;2023-02-03T13:23:19;5.80;;;1.40;;
64293;SDS011;50636;45.596;5.258;2023-02-03T13:28:24;7.70;;;1.60;;
64293;SDS011;50636;45.596;5.258;2023-02-03T13:36:48;7.72;;;1.60;;
64293;SDS011;50636;45.596;5.258;2023-02-03T13:42:31;5.45;;;1.40;;
64293;SDS011;50636;45.596;5.258;2023-02-03T13:47:49;8.05;;;1.80;;
64293;SDS011;50636;45.596;5.258;2023-02-03T13:50:22;14.43;;;2.55;;
64293;SDS011;50636;45.596;5.258;2023-02-03T13:52:52;8.38;;;1.58;;
64293;SDS011;50636;45.596;5.258;2023-02-03T13:55:28;8.38;;;2.22;;
64293;SDS011;50636;45.596;5.258;2023-02-03T13:58:06;13.68;;;1.98;;
64293;SDS011;50636;45.596;5.258;2023-02-03T14:03:16;5.70;;;1.67;;
64293;SDS011;50636;45.596;5.258;2023-02-03T14:06:02;5.80;;;1.73;;
64293;SDS011;50636;45.596;5.258;2023-02-03T14:16:45;6.32;;;1.92;;
64293;SDS011;50636;45.596;5.258;2023-02-03T14:19:52;8.52;;;1.45;;
64293;SDS011;50636;45.596;5.258;2023-02-03T14:22:01;5.32;;;1.63;;
64293;SDS011;50636;45.596;5.258;2023-02-03T14:24:32;5.97;;;1.73;;
64293;SDS011;50636;45.596;5.258;2023-02-03T14:27:02;11.45;;;2.35;;
64293;SDS011;50636;45.596;5.258;2023-02-03T14:29:31;8.93;;;1.50;;
64293;SDS011;50636;45.596;5.258;2023-02-03T14:34:32;5.03;;;1.98;;
64293;SDS011;50636;45.596;5.258;2023-02-03T14:37:10;6.50;;;1.73;;
64293;SDS011;50636;45.596;5.258;2023-02-03T14:51:02;4.80;;;2.42;;
64293;SDS011;50636;45.596;5.258;2023-02-03T15:02:07;9.30;;;1.98;;
64293;SDS011;50636;45.596;5.258;2023-02-03T15:04:35;7.75;;;1.98;;
64293;SDS011;50636;45.596;5.258;2023-02-03T15:07:01;8.93;;;1.83;;
64293;SDS011;50636;45.596;5.258;2023-02-03T15:09:31;4.30;;;1.50;;
64293;SDS011;50636;45.596;5.258;2023-02-03T15:12:16;5.55;;;1.17;;
64293;SDS011;50636;45.596;5.258;2023-02-03T15:14:43;6.97;;;2.38;;
64293;SDS011;50636;45.596;5.258;2023-02-03T15:17:12;19.70;;;2.38;;
64293;SDS011;50636;45.596;5.258;2023-02-03T15:19:48;8.40;;;2.03;;
64293;SDS011;50636;45.596;5.258;2023-02-03T15:22:19;11.95;;;1.70;;
64293;SDS011;50636;45.596;5.258;2023-02-03T15:24:49;10.95;;;1.60;;
64293;SDS011;50636;45.596;5.258;2023-02-03T15:27:20;10.85;;;1.75;;
64293;SDS011;50636;45.596;5.258;2023-02-03T15:29:49;6.68;;;1.30;;
64293;SDS011;50636;45.596;5.258;2023-02-03T15:32:29;8.75;;;1.80;;
64293;SDS011;50636;45.596;5.258;2023-02-03T15:35:05;12.85;;;2.13;;
64293;SDS011;50636;45.596;5.258;2023-02-03T15:37:42;6.38;;;1.75;;
64293;SDS011;50636;45.596;5.258;2023-02-03T15:40:16;15.63;;;3.85;;
64293;SDS011;50636;45.596;5.258;2023-02-03T15:42:51;15.70;;;3.83;;
64293;SDS011;50636;45.596;5.258;2023-02-03T15:45:21;16.20;;;4.07;;
64293;SDS011;50636;45.596;5.258;2023-02-03T15:47:54;3.95;;;2.08;;
64293;SDS011;50636;45.596;5.258;2023-02-03T15:50:33;7.00;;;1.42;;
64293;SDS011;50636;45.596;5.258;2023-02-03T15:53:22;12.60;;;2.17;;
64293;SDS011;50636;45.596;5.258;2023-02-03T15:55:55;8.80;;;1.60;;
64293;SDS011;50636;45.596;5.258;2023-02-03T15:58:28;4.88;;;1.58;;
64293;SDS011;50636;45.596;5.258;2023-02-03T16:00:58;3.38;;;1.38;;
64293;SDS011;50636;45.596;5.258;2023-02-03T16:03:32;3.65;;;1.55;;
64293;SDS011;50636;45.596;5.258;2023-02-03T16:06:32;9.00;;;1.40;;
64293;SDS011;50636;45.596;5.258;2023-02-03T16:09:03;3.95;;;1.48;;
64293;SDS011;50636;45.596;5.258;2023-02-03T16:11:37;3.40;;;1.33;;
64293;SDS011;50636;45.596;5.258;2023-02-03T16:14:04;5.78;;;1.67;;
64293;SDS011;50636;45.596;5.258;2023-02-03T16:19:12;13.10;;;2.78;;
64293;SDS011;50636;45.596;5.258;2023-02-03T16:30:33;5.25;;;1.80;;
64293;SDS011;50636;45.596;5.258;2023-02-03T16:35:55;6.72;;;2.97;;
64293;SDS011;50636;45.596;5.258;2023-02-03T16:41:32;11.35;;;5.43;;
64293;SDS011;50636;45.596;5.258;2023-02-03T16:44:16;7.70;;;2.25;;
64293;SDS011;50636;45.596;5.258;2023-02-03T16:47:01;5.07;;;1.90;;
64293;SDS011;50636;45.596;5.258;2023-02-03T16:49:46;11.38;;;2.28;;
64293;SDS011;50636;45.596;5.258;2023-02-03T16:52:30;5.07;;;1.70;;
64293;SDS011;50636;45.596;5.258;2023-02-03T16:54:57;12.02;;;2.33;;
64293;SDS011;50636;45.596;5.258;2023-02-03T16:57:22;5.82;;;1.90;;
64293;SDS011;50636;45.596;5.258;2023-02-03T16:59:48;5.40;;;2.13;;
64293;SDS011;50636;45.596;5.258;2023-02-03T17:02:14;4.75;;;2.10;;
64293;SDS011;50636;45.596;5.258;2023-02-03T17:04:40;5.78;;;1.63;;
64293;SDS011;50636;45.596;5.258;2023-02-03T17:07:06;5.97;;;1.90;;
64293;SDS011;50636;45.596;5.258;2023-02-03T17:09:32;4.72;;;2.22;;
64293;SDS011;50636;45.596;5.258;2023-02-03T17:12:01;6.88;;;1.75;;
64293;SDS011;50636;45.596;5.258;2023-02-03T17:14:26;4.32;;;1.60;;
64293;SDS011;50636;45.596;5.258;2023-02-03T17:16:53;7.68;;;2.10;;
64293;SDS011;50636;45.596;5.258;2023-02-03T17:19:18;6.03;;;2.00;;
64293;SDS011;50636;45.596;5.258;2023-02-03T17:21:44;10.13;;;2.20;;
64293;SDS011;50636;45.596;5.258;2023-02-03T17:24:11;10.52;;;1.95;;
64293;SDS011;50636;45.596;5.258;2023-02-03T17:26:37;5.82;;;1.95;;
64293;SDS011;50636;45.596;5.258;2023-02-03T17:29:03;6.82;;;1.90;;
64293;SDS011;50636;45.596;5.258;2023-02-03T17:31:29;5.65;;;2.05;;
64293;SDS011;50636;45.596;5.258;2023-02-03T17:33:56;6.22;;;1.92;;
64293;SDS011;50636;45.596;5.258;2023-02-03T17:36:21;5.18;;;2.20;;
64293;SDS011;50636;45.596;5.258;2023-02-03T17:38:54;9.32;;;2.42;;
64293;SDS011;50636;45.596;5.258;2023-02-03T17:41:23;6.60;;;2.30;;
64293;SDS011;50636;45.596;5.258;2023-02-03T17:43:51;5.78;;;2.33;;
64293;SDS011;50636;45.596;5.258;2023-02-03T17:46:18;7.10;;;2.42;;
64293;SDS011;50636;45.596;5.258;2023-02-03T17:48:48;8.35;;;2.63;;
64293;SDS011;50636;45.596;5.258;2023-02-03T17:51:18;4.07;;;2.40;;
64293;SDS011;50636;45.596;5.258;2023-02-03T17:53:46;7.43;;;2.75;;